createdAt,value
2022-10-30T00:02:02.792Z,97788.97
2022-10-30T00:05:06.477Z,97791.19
2022-10-30T00:08:11.361Z,97793.19
2022-10-30T00:11:14.840Z,97793.41
2022-10-30T00:14:18.329Z,97780.09
2022-10-30T00:17:22.534Z,97773.78
2022-10-30T00:20:25.381Z,97773.34
2022-10-30T00:23:28.227Z,97762.72
2022-10-30T00:26:32.386Z,97767.41
2022-10-30T00:29:35.285Z,97766.16
2022-10-30T00:32:39.555Z,97761.25
2022-10-30T00:35:49.454Z,97760.81
2022-10-30T00:38:52.393Z,97756.34
2022-10-30T00:41:56.804Z,97748.78
2022-10-30T00:44:59.917Z,97744.50
2022-10-30T00:48:05.907Z,97744.91
2022-10-30T00:51:11.439Z,97740.78
2022-10-30T00:54:17.601Z,97745.66
2022-10-30T00:57:21.650Z,97734.25
2022-10-30T01:00:28.766Z,97737.13
2022-10-30T01:03:34.666Z,97737.97
2022-10-30T01:06:41.520Z,97740.41
2022-10-30T01:09:46.566Z,97731.03
2022-10-30T01:12:52.364Z,97731.56
2022-10-30T01:16:12.762Z,97718.34
2022-10-30T01:19:26.714Z,97722.00
2022-10-30T01:22:47.422Z,97725.66
2022-10-30T01:25:57.917Z,97715.25
2022-10-30T01:29:19.826Z,97707.94
2022-10-30T01:32:42.844Z,97705.69
2022-10-30T01:35:51.067Z,97707.34
2022-10-30T01:38:57.900Z,97703.25
2022-10-30T01:42:10.443Z,97704.09
2022-10-30T01:45:17.597Z,97705.31
2022-10-30T01:48:58.898Z,97708.97
2022-10-30T01:52:13.874Z,97708.19
2022-10-30T01:55:28.226Z,97704.13
2022-10-30T01:58:38.180Z,97711.47
2022-10-30T02:01:43.594Z,97713.53
2022-10-30T02:04:46.967Z,97709.06
2022-10-30T02:07:51.375Z,97706.00
2022-10-30T02:10:55.632Z,97717.22
2022-10-30T02:14:13.929Z,97716.19
2022-10-30T02:17:17.126Z,97716.78
2022-10-30T02:20:21.783Z,97703.72
2022-10-30T02:23:24.880Z,97711.66
2022-10-30T02:26:27.756Z,97707.38
2022-10-30T02:29:30.679Z,97691.47
2022-10-30T02:32:36.071Z,97694.94
2022-10-30T02:35:40.380Z,97689.44
2022-10-30T02:38:44.681Z,97685.38
2022-10-30T02:41:47.719Z,97685.38
2022-10-30T02:44:50.630Z,97688.16
2022-10-30T02:47:54.733Z,97684.50
2022-10-30T02:51:02.136Z,97674.94
2022-10-30T02:54:05.771Z,97683.66
2022-10-30T02:57:10.314Z,97672.28
2022-10-30T03:00:15.475Z,97672.81
2022-10-30T03:03:21.423Z,97670.94
2022-10-30T03:06:28.397Z,97679.88
2022-10-30T03:09:34.027Z,97679.47
2022-10-30T03:12:36.892Z,97674.56
2022-10-30T03:15:39.776Z,97675.41
2022-10-30T03:18:43.123Z,97676.56
2022-10-30T03:21:49.102Z,97664.34
2022-10-30T03:24:51.971Z,97657.38
2022-10-30T03:27:55.706Z,97659.41
2022-10-30T03:31:03.521Z,97652.94
2022-10-30T03:34:06.466Z,97650.38
2022-10-30T03:37:10.771Z,97658.63
2022-10-30T03:40:13.834Z,97680.25
2022-10-30T03:43:17.076Z,97683.84
2022-10-30T03:46:20.112Z,97678.56
2022-10-30T03:49:24.352Z,97677.75
2022-10-30T03:52:28.664Z,97683.22
2022-10-30T03:55:31.529Z,97683.84
2022-10-30T03:58:34.940Z,97687.91
2022-10-30T04:01:39.597Z,97678.47
2022-10-30T04:04:42.525Z,97677.25
2022-10-30T04:07:47.074Z,97681.91
2022-10-30T04:10:49.983Z,97672.72
2022-10-30T04:13:53.738Z,97679.31
2022-10-30T04:16:56.673Z,97681.16
2022-10-30T04:19:59.647Z,97677.31
2022-10-30T04:23:06.385Z,97680.97
2022-10-30T04:26:09.540Z,97676.94
2022-10-30T04:29:15.065Z,97674.31
2022-10-30T04:32:19.426Z,97660.66
2022-10-30T04:35:24.642Z,97662.06
2022-10-30T04:38:28.983Z,97662.19
2022-10-30T04:41:32.653Z,97652.00
2022-10-30T04:44:40.211Z,97654.03
2022-10-30T04:47:44.380Z,97641.53
2022-10-30T04:50:47.319Z,97645.47
2022-10-30T04:53:59.894Z,97652.03
2022-10-30T04:57:05.994Z,97653.34
2022-10-30T05:00:10.557Z,97661.47
2022-10-30T05:03:19.769Z,97657.16
2022-10-30T05:06:25.919Z,97652.00
2022-10-30T05:09:30.448Z,97650.38
2022-10-30T05:12:33.398Z,97649.16
2022-10-30T05:15:36.251Z,97641.81
2022-10-30T05:18:39.107Z,97644.28
2022-10-30T05:21:41.946Z,97654.00
2022-10-30T05:24:46.164Z,97636.97
2022-10-30T05:27:49.396Z,97643.50
2022-10-30T05:30:55.475Z,97649.97
2022-10-30T05:34:18.453Z,97643.84
2022-10-30T05:37:24.292Z,97634.81
2022-10-30T05:40:29.641Z,97637.66
2022-10-30T05:43:32.500Z,97629.94
2022-10-30T05:46:35.666Z,97636.81
2022-10-30T05:49:50.575Z,97632.56
2022-10-30T05:52:57.809Z,97632.63
2022-10-30T05:56:02.211Z,97637.38
2022-10-30T05:59:08.235Z,97642.63
2022-10-30T06:02:11.180Z,97651.25
2022-10-30T06:05:14.176Z,97653.84
2022-10-30T06:08:17.541Z,97666.81
2022-10-30T06:11:23.542Z,97662.75
2022-10-30T06:14:30.394Z,97652.94
2022-10-30T06:17:33.280Z,97656.59
2022-10-30T06:20:47.353Z,97655.41
2022-10-30T06:23:59.032Z,97659.66
2022-10-30T06:27:39.772Z,97664.78
2022-10-30T06:30:42.895Z,97677.53
2022-10-30T06:33:46.522Z,97675.59
2022-10-30T06:36:50.807Z,97679.03
2022-10-30T06:39:53.778Z,97680.25
2022-10-30T06:43:21.064Z,97670.25
2022-10-30T06:46:33.710Z,97679.03
2022-10-30T06:49:37.131Z,97674.34
2022-10-30T06:52:40.765Z,97670.41
2022-10-30T06:55:43.721Z,97675.94
2022-10-30T06:59:04.440Z,97683.31
2022-10-30T07:02:13.277Z,97674.13
2022-10-30T07:05:28.270Z,97677.47
2022-10-30T07:08:31.359Z,97671.00
2022-10-30T07:11:34.481Z,97672.69
2022-10-30T07:15:02.512Z,97676.13
2022-10-30T07:18:13.727Z,97682.03
2022-10-30T07:21:17.018Z,97672.56
2022-10-30T07:24:20.033Z,97675.44
2022-10-30T07:27:47.572Z,97683.16
2022-10-30T07:31:41.482Z,97684.78
2022-10-30T07:34:45.358Z,97690.91
2022-10-30T07:38:24.156Z,97693.31
2022-10-30T07:41:37.964Z,97698.09
2022-10-30T07:48:32.590Z,97703.06
2022-10-30T07:51:55.409Z,97713.13
2022-10-30T07:54:58.410Z,97709.47
2022-10-30T07:58:19.460Z,97718.53
2022-10-30T08:01:38.970Z,97709.13
2022-10-30T08:05:27.027Z,97708.53
2022-10-30T08:08:44.803Z,97714.06
2022-10-30T08:12:06.891Z,97707.81
2022-10-30T08:15:10.865Z,97702.50
2022-10-30T08:18:13.753Z,97698.25
2022-10-30T08:21:19.980Z,97695.81
2022-10-30T08:24:44.269Z,97702.34
2022-10-30T08:27:57.364Z,97700.75
2022-10-30T08:31:03.413Z,97703.44
2022-10-30T08:34:26.727Z,97705.66
2022-10-30T08:37:32.610Z,97704.81
2022-10-30T08:40:35.703Z,97703.13
2022-10-30T08:43:41.961Z,97701.88
2022-10-30T08:46:45.129Z,97707.81
2022-10-30T08:49:48.101Z,97701.22
2022-10-30T08:52:55.882Z,97695.31
2022-10-30T08:55:59.217Z,97688.97
2022-10-30T08:59:08.713Z,97688.53
2022-10-30T09:02:12.377Z,97675.63
2022-10-30T09:05:47.891Z,97681.34
2022-10-30T09:09:12.185Z,97694.00
2022-10-30T09:12:21.086Z,97694.00
2022-10-30T09:15:24.775Z,97702.50
2022-10-30T09:18:31.417Z,97694.34
2022-10-30T09:21:34.679Z,97690.19
2022-10-30T09:24:40.067Z,97693.06
2022-10-30T09:28:01.577Z,97691.63
2022-10-30T09:31:17.463Z,97685.41
2022-10-30T09:34:20.320Z,97667.91
2022-10-30T09:37:34.387Z,97665.00
2022-10-30T09:40:54.731Z,97663.63
2022-10-30T09:44:12.907Z,97670.25
2022-10-30T09:47:25.735Z,97688.72
2022-10-30T09:50:35.804Z,97711.47
2022-10-30T09:53:57.374Z,97732.38
2022-10-30T09:57:19.335Z,97745.03
2022-10-30T10:00:25.468Z,97748.09
2022-10-30T10:03:43.919Z,97750.22
2022-10-30T10:07:11.426Z,97769.72
2022-10-30T10:10:34.816Z,97773.47
2022-10-30T10:13:49.263Z,97784.25
2022-10-30T10:16:54.384Z,97777.47
2022-10-30T10:20:00.431Z,97779.09
2022-10-30T10:23:13.245Z,97778.19
2022-10-30T10:26:28.914Z,97767.44
2022-10-30T10:29:48.970Z,97772.50
2022-10-30T10:33:11.604Z,97775.16
2022-10-30T10:36:28.584Z,97786.06
2022-10-30T10:39:47.438Z,97775.53
2022-10-30T10:43:02.956Z,97780.59
2022-10-30T10:46:28.043Z,97776.34
2022-10-30T10:49:47.398Z,97776.75
2022-10-30T10:52:56.498Z,97771.25
2022-10-30T10:56:01.965Z,97770.84
2022-10-30T10:59:08.987Z,97766.59
2022-10-30T11:02:29.429Z,97768.88
2022-10-30T11:05:36.282Z,97770.94
2022-10-30T11:08:39.230Z,97768.41
2022-10-30T11:11:42.145Z,97769.63
2022-10-30T11:14:45.162Z,97761.41
2022-10-30T11:17:59.736Z,97759.09
2022-10-30T11:21:05.398Z,97768.06
2022-10-30T11:24:28.028Z,97760.28
2022-10-30T11:27:31.701Z,97757.66
2022-10-30T11:30:34.736Z,97756.22
2022-10-30T11:33:38.933Z,97756.69
2022-10-30T11:36:41.836Z,97762.78
2022-10-30T11:40:04.030Z,97759.63
2022-10-30T11:43:07.543Z,97759.69
2022-10-30T11:46:18.299Z,97757.22
2022-10-30T11:49:38.535Z,97752.25
2022-10-30T11:52:44.778Z,97759.19
2022-10-30T11:55:49.431Z,97759.38
2022-10-30T11:58:55.470Z,97750.06
2022-10-30T12:02:04.378Z,97745.88
2022-10-30T12:05:31.915Z,97739.56
2022-10-30T12:08:35.263Z,97739.88
2022-10-30T12:11:39.664Z,97738.25
2022-10-30T12:14:42.771Z,97728.16
2022-10-30T12:17:53.066Z,97732.38
2022-10-30T12:20:59.011Z,97732.97
2022-10-30T12:24:07.037Z,97731.06
2022-10-30T12:27:18.196Z,97726.09
2022-10-30T12:30:26.612Z,97729.25
2022-10-30T12:33:34.042Z,97725.59
2022-10-30T12:36:45.620Z,97732.41
2022-10-30T12:39:56.981Z,97731.16
2022-10-30T12:43:06.484Z,97729.75
2022-10-30T12:46:30.992Z,97720.84
2022-10-30T12:49:41.886Z,97720.75
2022-10-30T12:52:50.086Z,97720.22
2022-10-30T12:56:03.015Z,97713.94
2022-10-30T12:59:25.963Z,97720.88
2022-10-30T13:02:39.496Z,97714.19
2022-10-30T13:09:04.464Z,97706.03
2022-10-30T13:12:11.547Z,97712.16
2022-10-30T13:15:25.164Z,97709.69
2022-10-30T13:18:31.450Z,97711.91
2022-10-30T13:21:40.581Z,97709.78
2022-10-30T13:25:00.874Z,97711.31
2022-10-30T13:28:24.391Z,97713.00
2022-10-30T13:31:35.918Z,97710.97
2022-10-30T13:34:46.971Z,97712.81
2022-10-30T13:37:58.777Z,97714.66
2022-10-30T13:41:12.675Z,97709.22
2022-10-30T13:44:31.589Z,97706.03
2022-10-30T13:47:45.299Z,97707.84
2022-10-30T13:51:08.840Z,97708.50
2022-10-30T13:54:20.771Z,97702.75
2022-10-30T13:57:33.922Z,97712.91
2022-10-30T14:00:55.784Z,97708.03
2022-10-30T14:04:07.107Z,97710.66
2022-10-30T14:07:23.827Z,97710.50
2022-10-30T14:10:41.569Z,97712.56
2022-10-30T14:13:55.253Z,97704.81
2022-10-30T14:17:14.348Z,97709.66
2022-10-30T14:20:28.025Z,97712.81
2022-10-30T14:23:35.807Z,97701.59
2022-10-30T14:26:38.872Z,97704.72
2022-10-30T14:29:51.660Z,97705.19
2022-10-30T14:32:54.939Z,97710.34
2022-10-30T14:36:17.261Z,97703.94
2022-10-30T14:39:31.259Z,97709.00
2022-10-30T14:42:42.247Z,97706.72
2022-10-30T14:45:54.020Z,97701.22
2022-10-30T14:49:10.951Z,97706.38
2022-10-30T14:52:23.784Z,97705.50
2022-10-30T14:55:32.119Z,97700.34
2022-10-30T14:58:37.218Z,97699.41
2022-10-30T15:01:52.771Z,97696.31
2022-10-30T15:05:16.719Z,97688.94
2022-10-30T15:08:31.767Z,97697.63
2022-10-30T15:11:59.558Z,97694.66
2022-10-30T15:15:05.920Z,97692.81
2022-10-30T15:18:16.826Z,97689.28
2022-10-30T15:21:25.265Z,97693.56
2022-10-30T15:24:32.579Z,97691.78
2022-10-30T15:27:41.366Z,97689.41
2022-10-30T15:35:32.832Z,97693.47
2022-10-30T15:38:35.826Z,97684.16
2022-10-30T15:41:44.136Z,97689.50
2022-10-30T15:44:47.761Z,97690.22
2022-10-30T15:47:59.286Z,97695.69
2022-10-30T15:51:06.909Z,97693.72
2022-10-30T15:54:12.900Z,97695.00
2022-10-30T15:57:49.320Z,97694.75
2022-10-30T16:00:42.444Z,97695.13
2022-10-30T16:03:52.942Z,97697.28
2022-10-30T16:06:59.572Z,97697.63
2022-10-30T16:10:04.793Z,97692.31
2022-10-30T16:13:07.908Z,97692.97
2022-10-30T16:16:17.449Z,97695.94
2022-10-30T16:19:28.051Z,97694.09
2022-10-30T16:22:37.835Z,97686.75
2022-10-30T16:25:46.815Z,97697.84
2022-10-30T16:28:50.257Z,97698.69
2022-10-30T16:31:53.955Z,97703.94
2022-10-30T16:34:59.243Z,97700.81
2022-10-30T16:38:04.344Z,97698.28
2022-10-30T16:41:08.088Z,97695.78
2022-10-30T16:44:23.243Z,97694.69
2022-10-30T16:47:26.922Z,97706.69
2022-10-30T16:50:34.412Z,97707.50
2022-10-30T16:53:38.851Z,97707.72
2022-10-30T16:56:47.447Z,97702.78
2022-10-30T16:59:52.210Z,97697.44
2022-10-30T17:02:57.538Z,97700.38
2022-10-30T17:06:04.060Z,97699.28
2022-10-30T17:09:11.103Z,97698.03
2022-10-30T17:12:19.290Z,97703.84
2022-10-30T17:15:23.757Z,97706.56
2022-10-30T17:18:32.638Z,97706.47
2022-10-30T17:21:40.791Z,97703.38
2022-10-30T17:24:46.971Z,97713.13
2022-10-30T17:27:51.535Z,97720.28
2022-10-30T17:30:54.569Z,97719.06
2022-10-30T17:34:14.213Z,97720.72
2022-10-30T17:37:17.064Z,97720.66
2022-10-30T17:40:21.743Z,97719.88
2022-10-30T17:43:30.672Z,97720.50
2022-10-30T17:46:33.611Z,97719.84
2022-10-30T17:49:36.517Z,97726.41
2022-10-30T17:52:39.502Z,97728.66
2022-10-30T17:55:46.999Z,97725.16
2022-10-30T17:58:49.808Z,97731.34
2022-10-30T18:01:52.726Z,97720.94
2022-10-30T18:04:56.795Z,97733.19
2022-10-30T18:07:59.708Z,97732.16
2022-10-30T18:11:03.982Z,97727.06
2022-10-30T18:14:07.093Z,97736.47
2022-10-30T18:17:10.602Z,97733.59
2022-10-30T18:20:13.603Z,97732.19
2022-10-30T18:23:46.581Z,97723.44
2022-10-30T18:26:45.225Z,97731.81
2022-10-30T18:29:48.053Z,97733.63
2022-10-30T18:32:51.452Z,97735.09
2022-10-30T18:35:55.075Z,97739.38
2022-10-30T18:38:58.363Z,97737.13
2022-10-30T18:42:02.663Z,97737.94
2022-10-30T18:45:20.464Z,97749.38
2022-10-30T18:48:23.412Z,97747.53
2022-10-30T18:51:28.129Z,97758.16
2022-10-30T18:54:30.955Z,97748.94
2022-10-30T18:57:35.124Z,97745.69
2022-10-30T19:01:10.049Z,97739.75
2022-10-30T19:04:04.358Z,97739.53
2022-10-30T19:07:07.595Z,97747.72
2022-10-30T19:10:10.879Z,97748.94
2022-10-30T19:13:17.441Z,97744.84
2022-10-30T19:16:22.092Z,97744.84
2022-10-30T19:19:24.997Z,97744.38
2022-10-30T19:22:27.833Z,97745.00
2022-10-30T19:25:33.586Z,97743.94
2022-10-30T19:28:38.469Z,97744.97
2022-10-30T19:31:42.388Z,97746.81
2022-10-30T19:34:45.973Z,97755.16
2022-10-30T19:37:48.809Z,97752.13
2022-10-30T19:40:51.793Z,97752.31
2022-10-30T19:43:56.031Z,97753.75
2022-10-30T19:46:59.029Z,97754.56
2022-10-30T19:50:01.840Z,97763.53
2022-10-30T19:53:05.736Z,97761.28
2022-10-30T19:56:11.774Z,97760.84
2022-10-30T19:59:16.599Z,97758.59
2022-10-30T20:02:19.595Z,97762.06
2022-10-30T20:05:24.758Z,97772.06
2022-10-30T20:08:28.070Z,97768.81
2022-10-30T20:11:31.925Z,97762.53
2022-10-30T20:14:36.296Z,97770.53
2022-10-30T20:17:39.276Z,97767.91
2022-10-30T20:20:50.964Z,97763.41
2022-10-30T20:23:53.844Z,97762.03
2022-10-30T20:26:57.680Z,97760.09
2022-10-30T20:30:01.910Z,97775.06
2022-10-30T20:33:04.920Z,97769.50
2022-10-30T20:36:08.337Z,97771.63
2022-10-30T20:39:12.662Z,97778.38
2022-10-30T20:42:19.304Z,97771.28
2022-10-30T20:45:26.201Z,97780.03
2022-10-30T20:48:30.219Z,97776.47
2022-10-30T20:51:33.034Z,97782.22
2022-10-30T20:54:35.921Z,97782.69
2022-10-30T20:57:39.247Z,97789.25
2022-10-30T21:00:43.678Z,97796.19
2022-10-30T21:03:47.339Z,97800.22
2022-10-30T21:06:50.170Z,97805.50
2022-10-30T21:09:53.388Z,97805.00
2022-10-30T21:12:56.303Z,97803.41
2022-10-30T21:16:04.003Z,97805.03
2022-10-30T21:19:06.944Z,97812.44
2022-10-30T21:22:09.793Z,97818.38
2022-10-30T21:25:12.798Z,97815.63
2022-10-30T21:28:15.718Z,97830.84
2022-10-30T21:31:20.111Z,97822.88
2022-10-30T21:34:22.940Z,97820.88
2022-10-30T21:37:25.823Z,97815.53
2022-10-30T21:40:28.736Z,97813.09
2022-10-30T21:43:31.551Z,97816.38
2022-10-30T21:46:35.778Z,97814.09
2022-10-30T21:49:38.617Z,97812.09
2022-10-30T21:52:41.561Z,97820.66
2022-10-30T21:55:44.494Z,97822.38
2022-10-30T21:58:47.752Z,97817.34
2022-10-30T22:01:52.049Z,97824.97
2022-10-30T22:04:54.891Z,97822.31
2022-10-30T22:07:58.025Z,97824.28
2022-10-30T22:11:03.771Z,97820.63
2022-10-30T22:14:07.326Z,97827.56
2022-10-30T22:17:12.743Z,97824.16
2022-10-30T22:20:15.685Z,97824.59
2022-10-30T22:23:18.640Z,97821.31
2022-10-30T22:26:23.017Z,97825.38
2022-10-30T22:29:26.063Z,97817.59
2022-10-30T22:32:30.222Z,97815.72
2022-10-30T22:35:33.035Z,97812.72
2022-10-30T22:38:36.614Z,97823.19
2022-10-30T22:41:39.736Z,97822.34
2022-10-30T22:44:42.530Z,97823.97
2022-10-30T22:47:46.719Z,97822.69
2022-10-30T22:50:57.405Z,97827.09
2022-10-30T22:54:01.805Z,97825.53
2022-10-30T22:57:04.779Z,97829.56
2022-10-30T23:00:08.983Z,97829.69
2022-10-30T23:03:13.219Z,97818.84
2022-10-30T23:06:16.105Z,97810.44
2022-10-30T23:09:22.319Z,97816.75
2022-10-30T23:12:25.226Z,97822.66
2022-10-30T23:15:28.126Z,97829.03
2022-10-30T23:18:32.772Z,97828.16
2022-10-30T23:21:35.761Z,97820.41
2022-10-30T23:24:38.578Z,97826.69
2022-10-30T23:27:41.419Z,97828.81
2022-10-30T23:30:44.646Z,97835.75
2022-10-30T23:33:49.644Z,97823.91
2022-10-30T23:36:54.267Z,97827.19
2022-10-30T23:39:58.339Z,97832.84
2022-10-30T23:43:01.538Z,97835.22
2022-10-30T23:46:04.647Z,97833.19
2022-10-30T23:49:08.936Z,97839.50
2022-10-30T23:52:11.712Z,97835.56
2022-10-30T23:55:14.537Z,97835.56
2022-10-30T23:58:17.390Z,97831.84
